Time;durP1;ratioP1;P1;durP2;ratioP2;P2;SDS_P1;SDS_P2;PMS_P1;PMS_P2;Temp;Humidity;BMP_temperature;BMP_pressure;BME280_temperature;BME280_humidity;BME280_pressure;Samples;Min_cycle;Max_cycle;Signal;HPM_P1;HPM_P2
2023/06/21 00:00:41;;;;;;;4.40;1.27;;;23.40;98.80;;;;;;5126633;27;45882;-61
2023/06/21 00:03:08;;;;;;;2.13;1.30;;;23.40;98.60;;;;;;5114804;27;45424;-62
2023/06/21 00:05:38;;;;;;;1.20;0.98;;;23.40;98.60;;;;;;5118318;27;45665;-62
2023/06/21 00:08:05;;;;;;;1.08;0.90;;;23.40;98.60;;;;;;5125189;27;46686;-61
2023/06/21 00:10:32;;;;;;;1.42;1.13;;;23.40;98.50;;;;;;5119893;27;45330;-62
2023/06/21 00:12:59;;;;;;;1.17;1.00;;;23.40;98.60;;;;;;5124229;27;45344;-62
2023/06/21 00:15:27;;;;;;;1.38;1.08;;;23.40;98.80;;;;;;5126585;27;45543;-62
2023/06/21 00:17:54;;;;;;;1.13;0.90;;;23.40;98.40;;;;;;5117525;27;47539;-62
2023/06/21 00:20:21;;;;;;;1.23;1.08;;;23.40;98.60;;;;;;5125977;27;45244;-62
2023/06/21 00:22:55;;;;;;;1.50;1.17;;;23.50;98.20;;;;;;5125897;27;45721;-62
2023/06/21 00:25:22;;;;;;;2.00;1.20;;;23.40;98.30;;;;;;5118276;27;45343;-62
2023/06/21 00:27:49;;;;;;;1.00;0.90;;;23.40;98.40;;;;;;5125812;27;47999;-62
2023/06/21 00:30:16;;;;;;;1.77;1.02;;;23.40;98.90;;;;;;5126161;27;45375;-61
2023/06/21 00:32:44;;;;;;;1.60;1.20;;;23.40;98.70;;;;;;5117699;27;45362;-62
2023/06/21 00:35:11;;;;;;;2.22;1.45;;;23.40;99.10;;;;;;5118614;27;45394;-62
2023/06/21 00:37:38;;;;;;;1.17;1.08;;;23.40;98.60;;;;;;5125694;27;47714;-62
2023/06/21 00:40:10;;;;;;;1.40;1.00;;;23.40;98.60;;;;;;5125508;27;45303;-62
2023/06/21 00:42:37;;;;;;;1.20;1.00;;;23.40;98.70;;;;;;5126625;27;45262;-61
2023/06/21 00:45:04;;;;;;;1.50;1.10;;;23.40;99.10;;;;;;5125954;27;45266;-62
2023/06/21 00:47:31;;;;;;;0.80;0.80;;;23.40;98.80;;;;;;5125890;27;45409;-61
2023/06/21 00:49:59;;;;;;;0.90;0.85;;;23.40;98.80;;;;;;5116784;27;45324;-61
2023/06/21 00:52:26;;;;;;;1.23;1.13;;;23.40;99.00;;;;;;5117506;27;45310;-61
2023/06/21 00:54:53;;;;;;;1.55;1.02;;;23.30;98.80;;;;;;5117112;27;45566;-62
2023/06/21 00:57:20;;;;;;;1.25;0.98;;;23.30;98.80;;;;;;5126051;27;45325;-62
2023/06/21 00:59:47;;;;;;;1.98;1.15;;;23.40;99.10;;;;;;5125301;27;45343;-62
2023/06/21 01:02:13;;;;;;;1.67;1.17;;;23.40;99.00;;;;;;5126077;27;45278;-62
2023/06/21 01:04:42;;;;;;;1.00;0.90;;;23.40;98.90;;;;;;5125966;27;45165;-62
2023/06/21 01:07:18;;;;;;;1.27;1.05;;;23.40;98.90;;;;;;5124633;27;46299;-62
2023/06/21 01:10:02;;;;;;;1.35;1.02;;;23.40;98.30;;;;;;5125098;27;46222;-62
2023/06/21 01:12:42;;;;;;;1.50;1.17;;;23.40;98.40;;;;;;5120530;27;45341;-62
2023/06/21 01:15:16;;;;;;;1.20;0.93;;;23.40;98.50;;;;;;5118698;27;45217;-62
2023/06/21 01:17:45;;;;;;;1.38;1.10;;;23.40;98.50;;;;;;5108302;27;45259;-62
2023/06/21 01:20:16;;;;;;;1.08;0.90;;;23.40;98.00;;;;;;5111124;27;45246;-61
2023/06/21 01:22:59;;;;;;;2.03;1.25;;;23.40;98.30;;;;;;5122026;27;45298;-62
2023/06/21 01:25:37;;;;;;;1.70;1.17;;;23.40;98.00;;;;;;5105341;27;45424;-62
2023/06/21 01:28:20;;;;;;;1.27;1.13;;;23.40;98.10;;;;;;5112893;27;48051;-61
2023/06/21 01:30:50;;;;;;;1.17;1.00;;;23.40;97.90;;;;;;5120798;27;45378;-62
2023/06/21 01:33:17;;;;;;;1.50;1.08;;;23.40;98.10;;;;;;5125868;27;45259;-62
2023/06/21 01:35:44;;;;;;;1.20;0.90;;;23.40;98.20;;;;;;5108651;27;45576;-62
2023/06/21 01:38:11;;;;;;;1.40;1.00;;;23.40;98.00;;;;;;5104239;27;45382;-62
2023/06/21 01:40:38;;;;;;;1.45;1.02;;;23.40;98.20;;;;;;5116652;27;45391;-61
2023/06/21 01:43:05;;;;;;;2.15;1.13;;;23.40;98.90;;;;;;5116694;27;45474;-62
2023/06/21 01:45:33;;;;;;;1.10;1.00;;;23.40;98.40;;;;;;5116874;27;45438;-62
2023/06/21 01:48:03;;;;;;;1.45;1.13;;;23.40;98.30;;;;;;5122379;27;45793;-62
2023/06/21 01:50:31;;;;;;;1.27;1.17;;;23.40;98.70;;;;;;5112270;27;45204;-61
2023/06/21 01:53:01;;;;;;;1.50;0.88;;;23.40;98.70;;;;;;5124892;27;45221;-62
2023/06/21 01:55:28;;;;;;;1.58;1.20;;;23.40;98.70;;;;;;5120870;27;45542;-62
2023/06/21 01:57:56;;;;;;;1.92;1.00;;;23.40;98.60;;;;;;5105029;27;46679;-62
2023/06/21 02:00:24;;;;;;;1.67;1.23;;;23.40;98.70;;;;;;5124969;27;45288;-62
2023/06/21 02:02:54;;;;;;;1.88;1.13;;;23.40;98.50;;;;;;5124362;27;45307;-62
2023/06/21 02:05:23;;;;;;;1.33;1.10;;;23.40;98.60;;;;;;5104819;27;45502;-61
2023/06/21 02:07:51;;;;;;;1.52;1.10;;;23.30;98.60;;;;;;5104394;27;47562;-62
2023/06/21 02:10:19;;;;;;;1.08;0.98;;;23.30;98.40;;;;;;5124822;27;45319;-62
2023/06/21 02:12:49;;;;;;;1.70;1.10;;;23.40;98.20;;;;;;5118024;27;45213;-62
2023/06/21 02:15:16;;;;;;;1.90;1.20;;;23.40;98.30;;;;;;5111639;27;45290;-62
2023/06/21 02:17:48;;;;;;;1.38;1.25;;;23.40;98.50;;;;;;5124668;27;47774;-62
2023/06/21 02:20:16;;;;;;;2.25;1.30;;;23.40;98.20;;;;;;5121278;27;45310;-62
2023/06/21 02:22:45;;;;;;;1.05;0.93;;;23.40;98.40;;;;;;5120820;27;45397;-62
2023/06/21 02:25:13;;;;;;;1.67;1.38;;;23.40;97.90;;;;;;5121138;27;45300;-62
2023/06/21 02:27:40;;;;;;;1.85;1.30;;;23.40;98.00;;;;;;5120114;27;45330;-62
2023/06/21 02:30:08;;;;;;;1.30;1.10;;;23.40;98.00;;;;;;5115706;27;45263;-62
2023/06/21 02:32:35;;;;;;;1.10;1.00;;;23.40;97.60;;;;;;5109880;27;45398;-61
2023/06/21 02:35:02;;;;;;;1.45;0.90;;;23.40;97.60;;;;;;5112726;27;45329;-62
2023/06/21 02:37:29;;;;;;;1.45;1.35;;;23.40;97.80;;;;;;5120673;27;45350;-62
2023/06/21 02:39:58;;;;;;;1.70;1.13;;;23.40;97.50;;;;;;5123787;27;45333;-62
2023/06/21 02:42:26;;;;;;;1.50;1.17;;;23.40;97.50;;;;;;5126192;27;45272;-61
2023/06/21 02:44:53;;;;;;;1.55;1.10;;;23.40;97.60;;;;;;5121833;27;45169;-61
2023/06/21 02:47:19;;;;;;;1.23;1.10;;;23.40;97.40;;;;;;5120563;27;46262;-62
2023/06/21 02:49:46;;;;;;;1.17;1.05;;;23.40;97.60;;;;;;5127288;27;45398;-61
2023/06/21 02:52:14;;;;;;;2.10;1.35;;;23.40;97.70;;;;;;5125290;27;45436;-62
2023/06/21 02:54:41;;;;;;;2.60;1.48;;;23.40;97.80;;;;;;5126863;27;45581;-62
2023/06/21 02:57:09;;;;;;;2.58;1.27;;;23.40;97.90;;;;;;5111280;27;46297;-62
2023/06/21 02:59:37;;;;;;;2.40;1.08;;;23.40;97.80;;;;;;5122038;27;45303;-61
2023/06/21 03:02:04;;;;;;;1.73;1.23;;;23.40;98.00;;;;;;5111373;27;45249;-62
2023/06/21 03:04:31;;;;;;;1.73;1.10;;;23.40;97.70;;;;;;5128043;27;45458;-61
2023/06/21 03:07:01;;;;;;;1.27;1.15;;;23.40;98.20;;;;;;5127033;27;47282;-62
2023/06/21 03:09:27;;;;;;;2.15;1.33;;;23.40;97.80;;;;;;5122815;27;46100;-61
2023/06/21 03:11:54;;;;;;;2.53;1.35;;;23.30;98.20;;;;;;5122409;27;45359;-61
2023/06/21 03:14:22;;;;;;;1.73;1.15;;;23.40;98.00;;;;;;5114090;27;45307;-62
2023/06/21 03:16:49;;;;;;;2.00;1.10;;;23.30;98.30;;;;;;5119311;27;45286;-62
2023/06/21 03:19:17;;;;;;;1.83;1.20;;;23.30;98.10;;;;;;5127101;27;45429;-62
2023/06/21 03:21:45;;;;;;;1.20;0.95;;;23.30;98.00;;;;;;5127401;27;45404;-62
2023/06/21 03:24:12;;;;;;;1.75;1.20;;;23.30;98.10;;;;;;5127455;27;45604;-62
2023/06/21 03:26:39;;;;;;;2.33;1.20;;;23.30;97.90;;;;;;5120465;27;45412;-62
2023/06/21 03:29:06;;;;;;;1.40;1.20;;;23.30;97.70;;;;;;5126355;27;45294;-62
2023/06/21 03:31:34;;;;;;;2.80;1.50;;;23.30;97.50;;;;;;5122859;27;45282;-62
2023/06/21 03:34:01;;;;;;;1.50;1.27;;;23.40;97.50;;;;;;5120349;27;45352;-62
2023/06/21 03:36:28;;;;;;;1.63;1.08;;;23.40;97.20;;;;;;5115044;27;45372;-62
2023/06/21 03:38:55;;;;;;;1.38;1.23;;;23.30;97.20;;;;;;5127243;27;45367;-62
2023/06/21 03:41:21;;;;;;;1.40;1.30;;;23.40;97.40;;;;;;5124916;27;45322;-62
2023/06/21 03:43:48;;;;;;;2.17;1.10;;;23.40;97.10;;;;;;5112100;27;45553;-61
2023/06/21 03:46:15;;;;;;;1.33;1.20;;;23.40;97.00;;;;;;5118511;27;48724;-62
2023/06/21 03:48:43;;;;;;;1.45;1.20;;;23.40;97.00;;;;;;5126205;27;45505;-62
2023/06/21 03:51:10;;;;;;;1.27;1.15;;;23.40;96.80;;;;;;5115522;27;45304;-62
2023/06/21 03:53:36;;;;;;;1.70;1.20;;;23.40;96.70;;;;;;5118837;27;45332;-62
2023/06/21 03:56:04;;;;;;;2.20;1.13;;;23.40;96.60;;;;;;5120657;27;47286;-62
2023/06/21 03:58:31;;;;;;;1.30;1.17;;;23.40;96.50;;;;;;5117580;27;45340;-61
2023/06/21 04:00:57;;;;;;;1.55;1.20;;;23.40;96.60;;;;;;5114984;27;45161;-62
2023/06/21 04:03:24;;;;;;;1.48;1.13;;;23.40;96.70;;;;;;5111393;27;45690;-62
2023/06/21 04:05:52;;;;;;;2.28;1.50;;;23.40;96.80;;;;;;5118980;27;46296;-61
2023/06/21 04:08:19;;;;;;;1.65;1.15;;;23.30;97.00;;;;;;5122030;27;45499;-62
2023/06/21 04:10:46;;;;;;;2.25;1.35;;;23.30;97.10;;;;;;5120403;27;45303;-62
2023/06/21 04:13:12;;;;;;;1.88;1.33;;;23.40;97.30;;;;;;5120692;27;45340;-62
2023/06/21 04:15:39;;;;;;;1.83;1.27;;;23.30;97.10;;;;;;5117949;27;46603;-62
2023/06/21 04:18:06;;;;;;;2.08;1.58;;;23.30;97.30;;;;;;5117537;27;45441;-61
2023/06/21 04:20:33;;;;;;;1.92;1.20;;;23.30;97.30;;;;;;5122016;27;45303;-62
2023/06/21 04:23:01;;;;;;;1.27;1.10;;;23.30;97.60;;;;;;5124508;27;45309;-62
2023/06/21 04:25:27;;;;;;;1.30;1.20;;;23.30;97.40;;;;;;5124692;27;47516;-62
2023/06/21 04:27:54;;;;;;;1.60;1.35;;;23.30;97.40;;;;;;5126492;27;45379;-61
2023/06/21 04:30:21;;;;;;;1.33;1.20;;;23.30;97.20;;;;;;5126650;27;45437;-62
2023/06/21 04:32:48;;;;;;;1.65;1.25;;;23.30;97.40;;;;;;5118177;27;45537;-62
2023/06/21 04:35:16;;;;;;;1.48;1.30;;;23.30;97.50;;;;;;5117433;27;46626;-62
2023/06/21 04:37:44;;;;;;;2.00;1.50;;;23.30;97.30;;;;;;5125732;27;45870;-62
2023/06/21 04:40:15;;;;;;;2.88;1.50;;;23.30;97.50;;;;;;5120427;27;45346;-62
2023/06/21 04:42:42;;;;;;;2.55;1.30;;;23.30;97.20;;;;;;5121407;27;45261;-62
2023/06/21 04:45:11;;;;;;;1.52;1.30;;;23.30;97.30;;;;;;5114405;27;48313;-62
2023/06/21 04:47:37;;;;;;;1.67;1.10;;;23.30;97.00;;;;;;5113772;27;45343;-62
2023/06/21 04:50:05;;;;;;;2.05;1.50;;;23.30;96.90;;;;;;5119527;27;45533;-62
2023/06/21 04:52:32;;;;;;;1.65;1.35;;;23.30;96.90;;;;;;5117870;27;45286;-62
2023/06/21 04:55:01;;;;;;;1.45;1.20;;;23.30;97.00;;;;;;5121580;27;46315;-62
2023/06/21 04:57:29;;;;;;;1.33;1.10;;;23.30;96.90;;;;;;5113686;27;45405;-62
2023/06/21 04:59:56;;;;;;;1.50;1.20;;;23.30;97.40;;;;;;5113849;27;45256;-62
2023/06/21 05:02:23;;;;;;;1.65;1.33;;;23.30;97.10;;;;;;5121737;27;45428;-62
2023/06/21 05:04:50;;;;;;;1.77;1.55;;;23.30;97.30;;;;;;5124980;27;45384;-61
2023/06/21 05:07:17;;;;;;;1.80;1.45;;;23.40;96.90;;;;;;5115906;27;45292;-61
2023/06/21 05:09:43;;;;;;;1.60;1.25;;;23.30;97.10;;;;;;5117813;27;45304;-61
2023/06/21 05:12:11;;;;;;;2.90;1.40;;;23.40;97.10;;;;;;5125094;27;45252;-61
2023/06/21 05:14:39;;;;;;;1.92;1.40;;;23.40;97.00;;;;;;5120319;27;45292;-61
2023/06/21 05:17:06;;;;;;;1.40;1.30;;;23.30;97.20;;;;;;5117679;27;46489;-61
2023/06/21 05:19:33;;;;;;;2.00;1.50;;;23.30;97.40;;;;;;5121054;27;45161;-62
2023/06/21 05:22:00;;;;;;;1.58;1.40;;;23.30;97.40;;;;;;5116018;27;45553;-61
2023/06/21 05:24:27;;;;;;;2.08;1.55;;;23.30;97.50;;;;;;5118467;27;46473;-62
2023/06/21 05:26:53;;;;;;;2.97;1.60;;;23.30;97.50;;;;;;5107533;27;45811;-62
2023/06/21 05:29:20;;;;;;;2.63;1.70;;;23.30;97.30;;;;;;5114421;27;45308;-62
2023/06/21 05:31:48;;;;;;;2.40;1.30;;;23.30;97.50;;;;;;5118114;27;45271;-62
2023/06/21 05:34:15;;;;;;;3.80;1.95;;;23.30;97.50;;;;;;5112654;27;46238;-62
2023/06/21 05:36:42;;;;;;;1.77;1.40;;;23.30;97.70;;;;;;5105037;27;45257;-62
2023/06/21 05:39:08;;;;;;;1.88;1.50;;;23.30;97.80;;;;;;5123921;27;45474;-62
2023/06/21 05:41:35;;;;;;;2.30;1.45;;;23.30;97.80;;;;;;5115077;27;45228;-62
2023/06/21 05:44:02;;;;;;;2.42;1.60;;;23.30;98.10;;;;;;5122193;27;48068;-61
2023/06/21 05:46:29;;;;;;;2.47;1.45;;;23.30;97.30;;;;;;5122182;27;45511;-62
2023/06/21 05:48:58;;;;;;;2.20;1.50;;;23.40;97.60;;;;;;5107612;27;45550;-61
2023/06/21 05:51:25;;;;;;;1.88;1.58;;;23.40;97.30;;;;;;5112947;27;45240;-61
2023/06/21 05:53:51;;;;;;;2.28;1.77;;;23.40;97.10;;;;;;5105246;27;48184;-63
2023/06/21 05:56:18;;;;;;;2.90;1.90;;;23.40;97.40;;;;;;5122176;27;45282;-62
2023/06/21 05:58:45;;;;;;;2.85;2.05;;;23.40;97.40;;;;;;5111793;27;45475;-62
2023/06/21 06:01:12;;;;;;;3.70;2.00;;;23.40;97.70;;;;;;5115863;27;45491;-62
2023/06/21 06:03:38;;;;;;;2.72;1.55;;;23.40;98.00;;;;;;5120151;27;47285;-62
2023/06/21 06:06:08;;;;;;;2.28;1.95;;;23.40;98.30;;;;;;5125018;27;45297;-62
2023/06/21 06:08:34;;;;;;;2.33;1.85;;;23.40;98.60;;;;;;5110231;27;45327;-62
2023/06/21 06:11:01;;;;;;;2.72;1.80;;;23.40;98.50;;;;;;5121851;27;45337;-62
2023/06/21 06:13:28;;;;;;;2.42;1.83;;;23.40;98.00;;;;;;5114369;27;46582;-61
2023/06/21 06:15:55;;;;;;;3.40;1.50;;;23.30;97.50;;;;;;5117456;27;45259;-61
2023/06/21 06:18:22;;;;;;;2.25;1.60;;;23.30;97.30;;;;;;5127466;27;45363;-62
2023/06/21 06:20:49;;;;;;;2.58;1.73;;;23.40;96.50;;;;;;5122766;27;45465;-62
2023/06/21 06:23:17;;;;;;;2.58;1.75;;;23.40;96.40;;;;;;5123703;27;45315;-62
2023/06/21 06:25:44;;;;;;;4.50;1.95;;;23.40;96.80;;;;;;5128055;27;45322;-62
2023/06/21 06:28:10;;;;;;;2.58;2.20;;;23.40;97.30;;;;;;5117115;27;45448;-62
2023/06/21 06:30:37;;;;;;;3.13;2.22;;;23.40;97.70;;;;;;5124693;27;45180;-62
2023/06/21 06:33:04;;;;;;;6.07;2.55;;;23.40;98.10;;;;;;5119222;27;47557;-62
2023/06/21 06:35:30;;;;;;;4.88;2.85;;;23.40;98.20;;;;;;5114159;27;45316;-62
2023/06/21 06:37:57;;;;;;;2.40;2.17;;;23.30;98.40;;;;;;5110019;27;45485;-62
2023/06/21 06:40:25;;;;;;;3.50;2.20;;;23.40;98.30;;;;;;5121744;27;45283;-62
2023/06/21 06:42:52;;;;;;;2.63;2.00;;;23.30;97.40;;;;;;5125316;27;45323;-63
2023/06/21 06:45:19;;;;;;;3.45;2.33;;;23.30;97.40;;;;;;5118603;27;46375;-62
2023/06/21 06:47:45;;;;;;;2.47;2.00;;;23.40;97.70;;;;;;5120898;27;45520;-62
2023/06/21 06:50:12;;;;;;;3.92;2.38;;;23.40;97.80;;;;;;5115859;27;46499;-62
2023/06/21 06:52:39;;;;;;;2.78;2.10;;;23.40;97.90;;;;;;5122405;27;46572;-62
2023/06/21 06:55:06;;;;;;;3.33;2.40;;;23.40;98.30;;;;;;5122206;27;45336;-62
2023/06/21 06:57:36;;;;;;;2.50;2.10;;;23.40;98.00;;;;;;5107115;27;45274;-63
2023/06/21 07:00:05;;;;;;;2.60;2.08;;;23.40;98.00;;;;;;5116172;27;45253;-62
2023/06/21 07:02:32;;;;;;;2.55;2.28;;;23.40;97.90;;;;;;5127570;27;45355;-62
2023/06/21 07:04:59;;;;;;;2.63;2.17;;;23.40;97.90;;;;;;5125034;27;45298;-62
2023/06/21 07:07:26;;;;;;;2.85;2.17;;;23.40;98.00;;;;;;5126932;27;45373;-62
2023/06/21 07:09:52;;;;;;;3.58;2.22;;;23.50;97.90;;;;;;5126881;27;45246;-62
2023/06/21 07:12:19;;;;;;;2.45;2.20;;;23.50;97.90;;;;;;5126480;27;46625;-62
2023/06/21 07:14:47;;;;;;;4.13;2.10;;;23.50;98.00;;;;;;5122543;27;45431;-62
2023/06/21 07:17:14;;;;;;;3.13;2.08;;;23.40;97.90;;;;;;5123044;27;45237;-62
2023/06/21 07:19:41;;;;;;;2.88;2.10;;;23.50;98.10;;;;;;5126661;27;45311;-62
2023/06/21 07:22:08;;;;;;;2.92;2.30;;;23.50;98.20;;;;;;5107473;27;45461;-62
2023/06/21 07:24:35;;;;;;;3.63;2.67;;;23.50;98.20;;;;;;5121530;27;45294;-62
2023/06/21 07:27:02;;;;;;;2.88;2.20;;;23.50;98.30;;;;;;5117535;27;45213;-62
2023/06/21 07:29:28;;;;;;;2.65;2.30;;;23.50;98.30;;;;;;5105572;27;45499;-62
2023/06/21 07:31:57;;;;;;;3.10;2.40;;;23.50;98.30;;;;;;5106974;27;45264;-61
2023/06/21 07:34:25;;;;;;;2.90;2.58;;;23.50;98.40;;;;;;5118573;27;45372;-62
2023/06/21 07:36:52;;;;;;;4.82;2.40;;;23.50;98.40;;;;;;5127779;27;45251;-61
2023/06/21 07:39:19;;;;;;;3.15;2.45;;;23.50;98.50;;;;;;5119003;27;45157;-61
2023/06/21 07:41:46;;;;;;;4.40;2.38;;;23.50;98.50;;;;;;5112864;27;45512;-61
2023/06/21 07:44:13;;;;;;;3.25;2.30;;;23.50;98.50;;;;;;5117572;27;45459;-62
2023/06/21 07:46:39;;;;;;;2.45;2.20;;;23.50;98.60;;;;;;5118933;27;45356;-62
2023/06/21 07:49:07;;;;;;;3.20;2.53;;;23.50;98.60;;;;;;5116635;27;45168;-62
2023/06/21 07:51:34;;;;;;;2.88;2.22;;;23.50;98.60;;;;;;5106548;27;45470;-61
2023/06/21 07:54:01;;;;;;;3.25;2.53;;;23.50;98.40;;;;;;5120876;27;45311;-62
2023/06/21 07:56:28;;;;;;;3.83;2.70;;;23.50;98.40;;;;;;5122646;27;45260;-61
2023/06/21 07:58:55;;;;;;;2.70;2.30;;;23.50;98.40;;;;;;5115001;27;45362;-62
2023/06/21 08:01:21;;;;;;;2.58;2.38;;;23.50;98.40;;;;;;5122909;27;47522;-61
2023/06/21 08:03:48;;;;;;;2.55;2.30;;;23.50;98.40;;;;;;5119079;27;45300;-61
2023/06/21 08:06:16;;;;;;;4.00;2.47;;;23.50;98.40;;;;;;5120811;27;45423;-61
2023/06/21 08:08:43;;;;;;;3.08;2.38;;;23.50;98.40;;;;;;5124251;27;45555;-62
2023/06/21 08:11:10;;;;;;;3.03;2.63;;;23.50;98.40;;;;;;5121666;27;46235;-61
2023/06/21 08:13:37;;;;;;;3.28;2.65;;;23.50;98.40;;;;;;5109507;27;45863;-61
2023/06/21 08:16:04;;;;;;;3.13;2.80;;;23.50;98.50;;;;;;5119208;27;45339;-61
2023/06/21 08:18:31;;;;;;;3.20;2.65;;;23.50;98.50;;;;;;5121049;27;45383;-61
2023/06/21 08:20:57;;;;;;;3.25;2.67;;;23.50;98.50;;;;;;5114181;27;45480;-62
2023/06/21 08:23:26;;;;;;;3.80;2.95;;;23.50;98.50;;;;;;5118755;27;45330;-61
2023/06/21 08:25:52;;;;;;;2.83;2.53;;;23.50;98.50;;;;;;5124186;27;45338;-61
2023/06/21 08:28:19;;;;;;;3.58;2.80;;;23.50;98.50;;;;;;5117386;27;45533;-62
2023/06/21 08:30:46;;;;;;;2.83;2.50;;;23.50;98.50;;;;;;5118859;27;46590;-61
2023/06/21 08:33:13;;;;;;;3.42;2.83;;;23.50;98.50;;;;;;5108444;27;45208;-62
2023/06/21 08:35:40;;;;;;;3.10;2.60;;;23.50;98.40;;;;;;5117753;27;45235;-61
2023/06/21 08:38:07;;;;;;;2.65;2.25;;;23.50;98.60;;;;;;5112630;27;45422;-61
2023/06/21 08:40:37;;;;;;;3.10;2.80;;;23.50;98.40;;;;;;5112906;27;49053;-61
2023/06/21 08:43:04;;;;;;;3.60;2.70;;;23.50;98.50;;;;;;5120217;27;45525;-62
2023/06/21 08:45:30;;;;;;;3.42;2.70;;;23.60;98.40;;;;;;5120571;27;45518;-61
2023/06/21 08:48:01;;;;;;;2.90;2.55;;;23.50;98.40;;;;;;5108134;27;45391;-61
2023/06/21 08:50:29;;;;;;;3.45;2.90;;;23.50;98.40;;;;;;5112976;27;48221;-61
2023/06/21 08:52:58;;;;;;;2.80;2.60;;;23.50;98.40;;;;;;5115562;27;45345;-61
2023/06/21 08:55:26;;;;;;;3.60;2.83;;;23.50;98.30;;;;;;5118343;27;45377;-61
2023/06/21 08:57:57;;;;;;;3.17;2.72;;;23.50;98.30;;;;;;5117448;27;45236;-62
2023/06/21 09:00:27;;;;;;;4.10;2.65;;;23.50;98.30;;;;;;5122083;27;46404;-62
2023/06/21 09:03:02;;;;;;;2.92;2.63;;;23.50;98.30;;;;;;5120776;27;45215;-62
2023/06/21 09:05:34;;;;;;;3.10;2.53;;;23.50;98.20;;;;;;5114112;27;45185;-61
2023/06/21 09:08:03;;;;;;;3.90;2.90;;;23.50;98.20;;;;;;5118841;27;45209;-62
2023/06/21 09:10:30;;;;;;;4.35;2.58;;;23.50;98.20;;;;;;5113312;27;47103;-62
2023/06/21 09:13:02;;;;;;;2.97;2.67;;;23.50;98.20;;;;;;5119727;27;45402;-62
2023/06/21 09:15:30;;;;;;;3.20;2.60;;;23.50;98.10;;;;;;5117546;27;45310;-62
2023/06/21 09:17:57;;;;;;;3.40;2.92;;;23.50;98.10;;;;;;5122437;27;45378;-62
2023/06/21 09:20:27;;;;;;;3.95;3.05;;;23.50;98.10;;;;;;5117321;27;45392;-61
2023/06/21 09:22:56;;;;;;;3.22;2.70;;;23.50;98.00;;;;;;5117223;27;45313;-61
2023/06/21 09:25:25;;;;;;;3.45;2.63;;;23.50;98.00;;;;;;5118985;27;45279;-61
2023/06/21 09:27:52;;;;;;;3.58;3.00;;;23.50;98.00;;;;;;5119874;27;45417;-61
2023/06/21 09:30:22;;;;;;;3.95;2.95;;;23.50;97.90;;;;;;5113757;27;46702;-62
2023/06/21 09:32:49;;;;;;;3.10;2.55;;;23.50;97.90;;;;;;5121185;27;45319;-61
2023/06/21 09:35:16;;;;;;;4.43;2.85;;;23.50;97.90;;;;;;5117264;27;45243;-61
2023/06/21 09:37:43;;;;;;;3.80;2.90;;;23.50;97.90;;;;;;5117593;27;45265;-63
2023/06/21 09:40:10;;;;;;;3.15;2.58;;;23.50;97.80;;;;;;5111360;27;45242;-61
2023/06/21 09:42:40;;;;;;;3.17;2.85;;;23.60;97.80;;;;;;5123281;27;46170;-61
2023/06/21 09:45:09;;;;;;;3.60;2.90;;;23.60;97.80;;;;;;5124473;27;45337;-61
2023/06/21 09:47:40;;;;;;;3.97;3.03;;;23.60;97.80;;;;;;5119664;27;45473;-61
2023/06/21 09:50:08;;;;;;;5.63;3.00;;;23.60;97.80;;;;;;5123007;27;46632;-61
2023/06/21 09:52:35;;;;;;;3.28;2.97;;;23.60;97.80;;;;;;5127259;27;45250;-61
2023/06/21 09:55:03;;;;;;;3.10;2.50;;;23.60;97.80;;;;;;5120150;27;45386;-61
2023/06/21 09:57:30;;;;;;;2.97;2.65;;;23.60;97.80;;;;;;5124467;27;45290;-61
2023/06/21 09:59:59;;;;;;;2.88;2.65;;;23.60;97.80;;;;;;5124883;27;47048;-61
2023/06/21 10:02:26;;;;;;;3.75;2.92;;;23.60;97.80;;;;;;5124594;27;45355;-61
2023/06/21 10:04:55;;;;;;;4.72;2.65;;;23.60;97.70;;;;;;5114366;27;45351;-61
2023/06/21 10:07:24;;;;;;;3.60;2.83;;;23.60;97.90;;;;;;5124389;27;45224;-62
2023/06/21 10:09:50;;;;;;;5.30;2.78;;;23.60;97.90;;;;;;5127766;27;47322;-62
2023/06/21 10:12:17;;;;;;;2.88;2.50;;;23.60;98.00;;;;;;5116647;27;45395;-62
2023/06/21 10:14:45;;;;;;;3.47;2.65;;;23.60;97.90;;;;;;5107999;27;45250;-62
2023/06/21 10:17:12;;;;;;;3.55;3.00;;;23.60;98.30;;;;;;5110395;27;45651;-62
2023/06/21 10:19:42;;;;;;;4.82;2.55;;;23.60;97.80;;;;;;5127835;27;47337;-62
2023/06/21 10:22:12;;;;;;;3.50;2.92;;;23.60;97.80;;;;;;5115596;27;45356;-62
2023/06/21 10:24:41;;;;;;;4.20;3.28;;;23.60;97.80;;;;;;5114088;27;45342;-62
2023/06/21 10:27:10;;;;;;;2.45;2.20;;;23.60;97.70;;;;;;5127095;27;45143;-62
2023/06/21 10:29:39;;;;;;;3.10;2.75;;;23.60;97.60;;;;;;5120868;27;46564;-61
2023/06/21 10:32:07;;;;;;;2.83;2.40;;;23.60;97.50;;;;;;5123953;27;45311;-61
2023/06/21 10:34:50;;;;;;;3.13;2.83;;;23.60;97.60;;;;;;5109057;27;45424;-62
2023/06/21 10:37:26;;;;;;;3.45;2.95;;;23.60;97.50;;;;;;5116045;27;45650;-61
2023/06/21 10:39:55;;;;;;;3.20;2.72;;;23.60;97.50;;;;;;5122595;27;48006;-62
2023/06/21 10:42:23;;;;;;;3.63;2.83;;;23.60;97.50;;;;;;5119581;27;45146;-62
2023/06/21 10:44:52;;;;;;;5.35;2.58;;;23.60;97.30;;;;;;5128095;27;45274;-62
2023/06/21 10:47:20;;;;;;;2.90;2.22;;;23.60;97.20;;;;;;5128258;27;45475;-62
2023/06/21 10:49:49;;;;;;;3.20;2.53;;;23.60;97.10;;;;;;5126537;27;46385;-62
2023/06/21 10:52:17;;;;;;;3.15;2.40;;;23.60;97.10;;;;;;5117562;27;45323;-61
2023/06/21 10:54:48;;;;;;;3.63;2.80;;;23.60;96.80;;;;;;5106774;27;45475;-62
2023/06/21 10:57:16;;;;;;;3.55;2.83;;;23.60;96.80;;;;;;5106762;27;45394;-62
2023/06/21 10:59:44;;;;;;;4.25;2.85;;;23.60;97.00;;;;;;5105749;27;46603;-61
2023/06/21 11:02:11;;;;;;;3.78;3.10;;;23.60;97.00;;;;;;5118400;27;45390;-62
2023/06/21 11:05:11;;;;;;;3.78;3.05;;;23.70;97.10;;;;;;5122952;27;45304;-62
2023/06/21 11:07:37;;;;;;;4.18;3.40;;;23.70;97.30;;;;;;5114392;27;45217;-62
2023/06/21 11:10:06;;;;;;;3.97;2.88;;;23.70;97.30;;;;;;5125719;27;46595;-62
2023/06/21 11:12:35;;;;;;;3.08;2.63;;;23.70;97.40;;;;;;5113317;27;45626;-62
2023/06/21 11:15:05;;;;;;;3.65;2.88;;;23.70;97.30;;;;;;5113437;27;45257;-62
2023/06/21 11:17:35;;;;;;;3.90;3.40;;;23.70;97.30;;;;;;5115651;27;45415;-62
2023/06/21 11:20:20;;;;;;;6.05;4.15;;;23.70;97.40;;;;;;5115757;27;47078;-61
2023/06/21 11:22:57;;;;;;;3.88;3.25;;;23.70;97.50;;;;;;5117581;27;45411;-61
2023/06/21 11:25:26;;;;;;;5.03;3.33;;;23.70;97.50;;;;;;5123498;27;45220;-62
2023/06/21 11:28:24;;;;;;;3.55;2.70;;;23.70;97.30;;;;;;5114670;27;45372;-62
2023/06/21 11:31:12;;;;;;;4.15;3.08;;;23.70;97.10;;;;;;5126935;27;46692;-62
2023/06/21 11:33:53;;;;;;;3.25;2.55;;;23.70;97.30;;;;;;5114536;27;45956;-61
2023/06/21 11:36:26;;;;;;;4.47;2.60;;;23.70;97.30;;;;;;5123133;27;45371;-61
2023/06/21 11:38:59;;;;;;;4.22;2.60;;;23.70;97.20;;;;;;5127581;27;45264;-62
2023/06/21 11:41:59;;;;;;;3.53;2.72;;;23.70;97.00;;;;;;5118747;27;45393;-62
2023/06/21 11:44:27;;;;;;;2.97;2.60;;;23.70;97.00;;;;;;5127712;27;45470;-62
2023/06/21 11:47:13;;;;;;;2.85;2.40;;;23.70;97.00;;;;;;5127012;27;45347;-62
2023/06/21 11:49:50;;;;;;;2.67;2.42;;;23.70;96.90;;;;;;5120916;27;45325;-62
2023/06/21 11:52:22;;;;;;;3.53;2.40;;;23.70;97.10;;;;;;5115800;27;48249;-62
2023/06/21 11:54:49;;;;;;;2.63;2.20;;;23.70;96.80;;;;;;5122559;27;45537;-62
2023/06/21 11:57:17;;;;;;;4.10;2.40;;;23.70;96.70;;;;;;5118547;27;45346;-62
2023/06/21 11:59:45;;;;;;;3.60;2.50;;;23.70;96.80;;;;;;5127169;27;45265;-62
2023/06/21 12:02:13;;;;;;;3.28;2.88;;;23.80;96.80;;;;;;5126601;27;45306;-62
2023/06/21 12:04:41;;;;;;;3.03;2.70;;;23.80;97.00;;;;;;5126728;27;45795;-62
2023/06/21 12:07:08;;;;;;;2.78;2.20;;;23.80;97.40;;;;;;5125992;27;45293;-62
2023/06/21 12:09:35;;;;;;;3.53;2.65;;;23.80;97.00;;;;;;5125889;27;45281;-62
2023/06/21 12:12:02;;;;;;;3.28;2.25;;;23.80;96.80;;;;;;5125829;27;48058;-62
2023/06/21 12:14:30;;;;;;;2.65;2.28;;;23.80;96.80;;;;;;5123882;27;45376;-61
2023/06/21 12:16:57;;;;;;;2.80;2.35;;;23.80;96.90;;;;;;5126982;27;45199;-62
2023/06/21 12:19:23;;;;;;;3.17;2.60;;;23.80;96.60;;;;;;5118079;27;45519;-62
2023/06/21 12:21:50;;;;;;;2.70;2.22;;;23.80;96.50;;;;;;5119794;27;48085;-62
2023/06/21 12:24:26;;;;;;;3.40;2.70;;;23.80;96.60;;;;;;5120775;27;45422;-62
2023/06/21 12:26:55;;;;;;;3.45;2.50;;;23.80;96.20;;;;;;5126767;27;45263;-62
2023/06/21 12:29:22;;;;;;;2.65;2.40;;;23.80;95.90;;;;;;5124984;27;45494;-62
2023/06/21 12:31:50;;;;;;;3.40;2.20;;;23.80;95.70;;;;;;5126397;27;46607;-62
2023/06/21 12:34:18;;;;;;;3.00;2.33;;;23.80;95.40;;;;;;5118198;27;45347;-62
2023/06/21 12:36:45;;;;;;;3.17;2.35;;;23.90;95.90;;;;;;5118741;27;45311;-62
2023/06/21 12:39:14;;;;;;;2.97;2.20;;;23.90;96.30;;;;;;5124069;27;45236;-62
2023/06/21 12:41:42;;;;;;;3.53;2.20;;;23.90;96.00;;;;;;5120315;27;47484;-61
2023/06/21 12:44:18;;;;;;;2.95;2.50;;;23.90;96.30;;;;;;5123724;27;45458;-62
2023/06/21 12:46:45;;;;;;;2.05;1.85;;;23.90;96.30;;;;;;5117873;27;45189;-61
2023/06/21 12:49:14;;;;;;;2.42;2.13;;;23.90;96.30;;;;;;5126014;27;45411;-61
2023/06/21 12:51:41;;;;;;;3.15;2.20;;;23.90;96.30;;;;;;5116305;27;48096;-61
2023/06/21 12:54:11;;;;;;;2.83;2.13;;;23.90;96.10;;;;;;5126016;27;45444;-61